Aviation Digital Data Service (ADDS)

Output produced by METARs form (2021 UTC 20 July 2018)
found at http://www.aviationweather.gov/adds/metars/
 
KJVW 202015Z AUTO 21003KT 6SM HZ 35/26 A2993 RMK AO2
KJVW 201955Z AUTO 35005KT 6SM HZ 35/27 A2994 RMK AO2
KJVW 201935Z AUTO 29006KT 5SM HZ 35/28 A2995 RMK AO2 LTG DSNT N
KJVW 201915Z AUTO VRB04KT 4SM VCTS HZ 35/28 A2996 RMK AO2 LTG DSNT N
KJVW 201855Z AUTO 30007KT 5SM HZ 34/27 A2994 RMK AO2
KJVW 201835Z AUTO VRB03KT 5SM HZ 34/28 A2995 RMK AO2
KJVW 201815Z AUTO VRB04KT 5SM HZ 34/27 A2995 RMK AO2
KJVW 201755Z AUTO 26004KT 5SM HZ 34/27 A2996 RMK AO2
KJVW 201735Z AUTO 00000KT 5SM HZ 34/27 A2996 RMK AO2
KJVW 201715Z AUTO VRB05KT 6SM HZ 33/27 A2996 RMK AO2
KJVW 201655Z AUTO VRB04KT 5SM HZ 33/26 A2996 RMK AO2
KJVW 201635Z AUTO 26006KT 6SM HZ 33/27 A2997 RMK AO2
KJVW 201615Z AUTO 24007KT 4SM HZ 32/27 A2996 RMK AO2
KJVW 201555Z AUTO 28004G10KT 5SM HZ 32/26 A2996 RMK AO2
KJVW 201535Z AUTO VRB04KT 5SM HZ CLR 32/26 A2996 RMK AO2
KJVW 201515Z AUTO VRB06KT 5SM HZ CLR 31/26 A2996 RMK AO2
KJVW 201455Z AUTO VRB04KT 5SM HZ CLR 31/26 A2996 RMK AO2
KJVW 201435Z AUTO 25006KT 4SM HZ CLR 31/27 A2996 RMK AO2
KJVW 201415Z AUTO 27004KT 5SM HZ CLR 30/26 A2996 RMK AO2
KJVW 201355Z AUTO VRB04KT 5SM HZ CLR 29/26 A2996 RMK AO2
KJVW 201335Z AUTO 23006KT 5SM HZ CLR 29/26 A2996 RMK AO2
KJVW 201315Z AUTO VRB05KT 5SM HZ CLR 28/26 A2996 RMK AO2
KJVW 201255Z AUTO VRB03KT 5SM BR CLR 27/25 A2995 RMK AO2
KJVW 201235Z AUTO 00000KT 5SM BR CLR 26/25 A2994 RMK AO2
KJVW 201215Z AUTO 00000KT 4SM BR CLR 25/25 A2994 RMK AO2
KJVW 201155Z AUTO 00000KT 4SM BR CLR 25/24 A2994 RMK AO2
KJVW 201135Z AUTO 00000KT 4SM BR CLR 24/24 A2993 RMK AO2
KJVW 201115Z AUTO 00000KT 5SM BR CLR 24/24 A2993 RMK AO2
KJVW 201055Z AUTO 00000KT 5SM BR CLR 24/24 A2991 RMK AO2
KJVW 201035Z AUTO 00000KT 5SM BR CLR 24/24 A2991 RMK AO2
KJVW 201015Z AUTO 00000KT 5SM BR CLR 24/24 A2990 RMK AO2
KJVW 200955Z AUTO 00000KT 7SM CLR 24/24 A2990 RMK AO2
KJVW 200935Z AUTO 00000KT 6SM BR CLR 25/24 A2990 RMK AO2
KJVW 200915Z AUTO 00000KT 7SM CLR 25/24 A2989 RMK AO2
KJVW 200855Z AUTO 00000KT 7SM CLR 26/24 A2988 RMK AO2
KJVW 200835Z AUTO 20006KT 8SM CLR 26/24 A2987 RMK AO2
KJVW 200815Z AUTO 20007KT 9SM CLR 26/24 A2987 RMK AO2
KJVW 200755Z AUTO 16006KT 9SM FEW031 26/24 A2989 RMK AO2 LTG DSNT E
KJVW 200735Z AUTO 00000G13KT 8SM VCTS FEW013 FEW018 BKN031 27/23 A2992 RMK AO2 LTG DSNT NW-NE
KJVW 200715Z AUTO VRB06G24KT 6SM VCTS BR FEW013 SCT017 SCT050 26/25 A2995 RMK AO2 LTG DSNT NW-NE
KJVW 200655Z AUTO 00000KT 7SM VCTS CLR 26/25 A2991 RMK AO2 LTG DSNT N AND NE
KJVW 200635Z AUTO 00000KT 7SM VCTS CLR 26/25 A2991 RMK AO2 LTG DSNT NW-NE
KJVW 200615Z AUTO 00000KT 7SM CLR 26/25 A2991 RMK AO2 LTG DSNT N AND NW
KJVW 200555Z AUTO 00000KT 8SM CLR 27/25 A2990 RMK AO2 LTG DSNT NW-NE
KJVW 200535Z AUTO 00000KT 7SM CLR 27/25 A2991 RMK AO2 LTG DSNT N AND NW
KJVW 200515Z AUTO 00000KT 8SM CLR 27/25 A2991 RMK AO2
KJVW 200455Z AUTO 12005KT 6SM BR CLR 27/26 A2992 RMK AO2
KJVW 200435Z AUTO 12004KT 5SM BR CLR 27/26 A2992 RMK AO2
KJVW 200415Z AUTO 12006KT 5SM BR CLR 27/26 A2992 RMK AO2
KJVW 200355Z AUTO 00000KT 6SM BR CLR 27/26 A2992 RMK AO2
KJVW 200335Z AUTO 6SM BR CLR 27/26 A2990 RMK AO2 LTG DSNT N
KJVW 200315Z AUTO 00000KT 6SM BR CLR 27/27 A2991 RMK AO2
KJVW 200255Z AUTO 00000KT 6SM BR CLR 27/27 A2990 RMK AO2
KJVW 200235Z AUTO 00000KT 5SM BR CLR 28/27 A2989 RMK AO2
KJVW 200215Z AUTO 00000KT 5SM BR 28/27 A2988 RMK AO2
KJVW 200155Z AUTO 00000KT 6SM BR 28/27 A2988 RMK AO2
KJVW 200135Z AUTO 00000KT 6SM BR 28/27 A2988 RMK AO2
KJVW 200115Z AUTO 00000KT 4SM BR 28/28 A2988 RMK AO2
KJVW 200055Z AUTO 00000KT 5SM BR 30/28 A2988 RMK AO2
KJVW 200035Z AUTO 00000KT 5SM BR 30/29 A2988 RMK AO2
KJVW 200015Z AUTO 00000KT 5SM HZ 32/27 A2987 RMK AO2
KJVW 192355Z AUTO 00000KT 4SM HZ 33/25 A2987 RMK AO2
KJVW 192335Z AUTO 00000KT 4SM HZ 33/25 A2987 RMK AO2
KJVW 192315Z AUTO 26004KT 5SM HZ 34/25 A2986 RMK AO2
KJVW 192255Z AUTO 00000KT 5SM HZ 34/24 A2987 RMK AO2
KJVW 192235Z AUTO 00000KT 4SM HZ 34/24 A2988 RMK AO2
KJVW 192215Z AUTO 00000KT 5SM HZ 34/24 A2988 RMK AO2
KJVW 192155Z AUTO 00000KT 4SM HZ 34/25 A2989 RMK AO2
KJVW 192135Z AUTO 31004KT 5SM HZ 34/25 A2989 RMK AO2
KJVW 192115Z AUTO 28004KT 4SM HZ 34/24 A2989 RMK AO2
KJVW 192055Z AUTO VRB03KT 4SM HZ 34/25 A2990 RMK AO2
KJVW 192035Z AUTO 00000KT 5SM HZ 33/25 A2991 RMK AO2
KJVW 192015Z AUTO 00000KT 4SM HZ 34/25 A2991 RMK AO2
KJVW 191955Z AUTO VRB04KT 5SM HZ 34/25 A2991 RMK AO2
KJVW 191935Z AUTO 00000KT 4SM HZ 34/25 A2991 RMK AO2
KJVW 191915Z AUTO VRB06KT 5SM HZ 34/24 A2991 RMK AO2
KJVW 191855Z AUTO 00000KT 5SM HZ 33/24 A2992 RMK AO2
KJVW 191835Z AUTO 00000G10KT 5SM HZ 33/24 A2992 RMK AO2
KJVW 191815Z AUTO VRB03KT 5SM HZ 33/24 A2993 RMK AO2
KJVW 191755Z AUTO 27004KT 4SM HZ 33/24 A2993 RMK AO2
KJVW 191735Z AUTO VRB04KT 6SM HZ 33/24 A2994 RMK AO2
KJVW 191715Z AUTO 00000KT 6SM HZ 32/25 A2994 RMK AO2
KJVW 191655Z AUTO VRB04KT 5SM HZ 32/25 A2995 RMK AO2
KJVW 191635Z AUTO 26004KT 4SM HZ 32/25 A2995 RMK AO2
KJVW 191615Z AUTO 00000KT 5SM HZ CLR 31/26 A2995 RMK AO2
KJVW 191555Z AUTO VRB04KT 5SM HZ CLR 30/26 A2995 RMK AO2
KJVW 191535Z AUTO 23004KT 5SM HZ CLR 30/26 A2995 RMK AO2
KJVW 191515Z AUTO 00000KT 4SM HZ CLR 30/26 A2996 RMK AO2
KJVW 191455Z AUTO VRB04KT 4SM HZ CLR 29/26 A2996 RMK AO2
KJVW 191435Z AUTO 00000KT 5SM BR FEW007 28/26 A2997 RMK AO2
KJVW 191415Z AUTO 00000KT 5SM BR FEW005 27/26 A2997 RMK AO2
KJVW 191355Z AUTO 22003KT 4SM BR BKN003 26/25 A2997 RMK AO2
KJVW 191335Z AUTO 22004KT 3SM BR OVC003 26/25 A2997 RMK AO2
KJVW 191315Z AUTO 20003KT 2 1/2SM BR OVC002 25/25 A2997 RMK AO2
KJVW 191255Z AUTO 17003KT 1/2SM BR OVC001 25/25 A2997 RMK AO2
KJVW 191235Z AUTO 00000KT 1/4SM FG OVC001 25/25 A2997 RMK AO2
KJVW 191215Z AUTO 00000KT 1/4SM FG OVC001 25/25 A2996 RMK AO2
KJVW 191155Z AUTO 00000KT 1/2SM BR OVC002 24/24 A2996 RMK AO2
KJVW 191135Z AUTO 00000KT 4SM BR BKN002 24/24 A2995 RMK AO2
KJVW 191115Z AUTO 00000KT 4SM BR FEW002 24/24 A2995 RMK AO2
KJVW 191055Z AUTO 10003KT 4SM BR CLR 24/24 A2995 RMK AO2
KJVW 191035Z AUTO 00000KT 5SM BR CLR 24/24 A2994 RMK AO2
KJVW 191015Z AUTO 09003KT 5SM BR CLR 24/24 A2994 RMK AO2
KJVW 190955Z AUTO 00000KT 4SM BR CLR 24/24 A2993 RMK AO2
KJVW 190935Z AUTO 00000KT 5SM BR CLR 24/24 A2993 RMK AO2
KJVW 190915Z AUTO 00000KT 5SM BR CLR 24/24 A2993 RMK AO2
KJVW 190855Z AUTO 00000KT 5SM BR CLR 24/24 A2992 RMK AO2
KJVW 190835Z AUTO 00000KT 6SM BR CLR 24/24 A2992 RMK AO2
KJVW 190815Z AUTO 00000KT 6SM BR CLR 24/24 A2991 RMK AO2
KJVW 190755Z AUTO 00000KT 3SM BR FEW001 24/24 A2991 RMK AO2
KJVW 190735Z AUTO 00000KT 3SM BR CLR 24/24 A2991 RMK AO2
KJVW 190715Z AUTO 00000KT 5SM BR CLR 24/24 A2991 RMK AO2
KJVW 190655Z AUTO 00000KT 4SM BR CLR 24/24 A2991 RMK AO2
KJVW 190635Z AUTO 00000KT 4SM BR CLR 24/24 A2991 RMK AO2
KJVW 190615Z AUTO 00000KT 4SM BR CLR 24/24 A2991 RMK AO2
KJVW 190555Z AUTO 00000KT 3SM BR CLR 24/24 A2992 RMK AO2
KJVW 190535Z AUTO 00000KT 4SM BR CLR 24/24 A2993 RMK AO2
KJVW 190515Z AUTO 00000KT 4SM BR CLR 24/24 A2993 RMK AO2
KJVW 190455Z AUTO 00000KT 5SM BR CLR 24/24 A2993 RMK AO2
KJVW 190435Z AUTO 00000KT 6SM BR CLR 25/25 A2993 RMK AO2
KJVW 190415Z AUTO 00000KT 5SM BR CLR 25/25 A2994 RMK AO2
KJVW 190355Z AUTO 00000KT 7SM CLR 25/25 A2994 RMK AO2
KJVW 190335Z AUTO 00000KT 7SM CLR 25/25 A2994 RMK AO2
KJVW 190315Z AUTO 00000KT 7SM CLR 25/25 A2995 RMK AO2
KJVW 190255Z AUTO 00000KT 7SM CLR 25/25 A2995 RMK AO2
KJVW 190235Z AUTO 00000KT 8SM CLR 25/25 A2995 RMK AO2
KJVW 190215Z AUTO 00000KT 7SM CLR 25/25 A2995 RMK AO2
KJVW 190155Z AUTO 6SM BR CLR 25/25 A2995 RMK AO2
KJVW 190135Z AUTO 7SM CLR 25/25 A2995 RMK AO2
KJVW 190115Z AUTO 00000KT 7SM CLR 25/25 A2995 RMK AO2
KJVW 190055Z AUTO 00000KT 6SM -DZ CLR 25/25 A2994 RMK AO2
KJVW 190035Z AUTO 09004KT 5SM -DZ CLR 25/25 A2994 RMK AO2 LTG DSNT E
KJVW 190015Z AUTO 11005KT 5SM VCTS DZ CLR 25/25 A2994 RMK AO2 LTG DSNT E AND SE
KJVW 182355Z AUTO 12004KT 5SM -DZ CLR 26/25 A2994 RMK AO2
KJVW 182335Z AUTO 11003KT 7SM CLR 26/25 A2994 RMK AO2 LTG DSNT E AND SE
KJVW 182315Z AUTO 00000KT 7SM VCTS CLR 26/24 A2993 RMK AO2 LTG DSNT NE AND SE
KJVW 182255Z AUTO 31004KT 6SM BR CLR 26/24 A2992 RMK AO2 LTG DSNT NE-S
KJVW 182235Z AUTO 00000KT 7SM CLR 26/24 A2994 RMK AO2 LTG DSNT E AND SE
KJVW 182215Z AUTO VRB04KT 6SM VCTS HZ 28/24 A2994 RMK AO2 LTG DSNT NE-SE
KJVW 182155Z AUTO VRB05G12KT 5SM TS 29/24 A2994 RMK AO2 LTG DSNT ALQDS
KJVW 182135Z AUTO 31015G28KT 5SM VCTS HZ 30/24 A2992 RMK AO2 LTG DSNT ALQDS
KJVW 182115Z AUTO 29013G19KT 4SM VCTS HZ 32/26 A2990 RMK AO2 LTG DSNT ALQDS
KJVW 182055Z AUTO 27011G17KT 4SM TS 32/26 A2991 RMK AO2 LTG DSNT ALQDS
KJVW 182035Z AUTO VRB05G12KT 4SM HZ 33/26 A2992 RMK AO2 LTG DSNT ALQDS
KJVW 182015Z AUTO 31007KT 4SM TS 33/26 A2992 RMK AO2 LTG DSNT NW-E
KJVW 181955Z AUTO 25006KT 4SM VCTS HZ 33/26 A2991 RMK AO2 LTG DSNT ALQDS
KJVW 181935Z AUTO 27010KT 4SM HZ 33/26 A2993 RMK AO2 LTG DSNT SE AND SW AND NW
KJVW 181915Z AUTO 26007KT 4SM HZ 33/26 A2994 RMK AO2 LTG DSNT W AND NW
KJVW 181855Z AUTO 29007KT 4SM HZ 33/26 A2995 RMK AO2
KJVW 181835Z AUTO VRB05KT 4SM HZ 32/26 A2996 RMK AO2
KJVW 181815Z AUTO 25007KT 4SM HZ 32/26 A2996 RMK AO2
KJVW 181755Z AUTO 00000KT 4SM HZ 32/26 A2997 RMK AO2
KJVW 181735Z AUTO 00000KT 4SM HZ 31/26 A2997 RMK AO2
KJVW 181715Z AUTO 00000KT 3SM HZ 32/26 A2998 RMK AO2
KJVW 181655Z AUTO 00000KT 4SM HZ 31/25 A2998 RMK AO2
KJVW 181635Z AUTO 00000KT 4SM HZ 31/26 A2999 RMK AO2
KJVW 181615Z AUTO VRB03KT 4SM HZ 31/25 A2999 RMK AO2
KJVW 181555Z AUTO 27005KT 4SM HZ CLR 30/26 A2999 RMK AO2
KJVW 181535Z AUTO VRB05KT 4SM HZ CLR 30/26 A2999 RMK AO2
KJVW 181515Z AUTO 26003KT 5SM HZ CLR 30/26 A3000 RMK AO2
KJVW 181455Z AUTO 30004KT 4SM HZ CLR 29/26 A3000 RMK AO2
KJVW 181435Z AUTO 27005KT 4SM HZ CLR 28/26 A3000 RMK AO2
KJVW 181415Z AUTO 00000KT 4SM BR CLR 27/26 A3000 RMK AO2
KJVW 181355Z AUTO 00000KT 4SM BR CLR 27/26 A3000 RMK AO2
KJVW 181335Z AUTO 00000KT 4SM BR CLR 26/25 A3000 RMK AO2
KJVW 181315Z AUTO 00000KT 3SM BR CLR 26/25 A3000 RMK AO2
KJVW 181255Z AUTO 20003KT 4SM BR CLR 26/25 A3000 RMK AO2
KJVW 181235Z AUTO 00000KT 4SM BR CLR 25/25 A3000 RMK AO2
KJVW 181215Z AUTO 00000KT 4SM BR CLR 25/25 A3001 RMK AO2
KJVW 181155Z AUTO 00000KT 2 1/2SM BR CLR 25/25 A3000 RMK AO2
KJVW 181135Z AUTO 00000KT 2 1/2SM BR CLR 25/25 A3000 RMK AO2
KJVW 181115Z AUTO 00000KT 3SM BR CLR 24/24 A3000 RMK AO2
KJVW 181055Z AUTO 00000KT 3SM BR CLR 24/24 A2999 RMK AO2
KJVW 181035Z AUTO 00000KT 4SM BR CLR 24/24 A2999 RMK AO2
KJVW 181015Z AUTO 00000KT 3SM BR CLR 24/24 A2999 RMK AO2
KJVW 180955Z AUTO 00000KT 3SM BR CLR 24/24 A2999 RMK AO2
KJVW 180935Z AUTO 00000KT 2 1/2SM BR CLR 24/24 A2998 RMK AO2
KJVW 180915Z AUTO 00000KT 3SM BR CLR 24/24 A2998 RMK AO2
KJVW 180855Z AUTO 00000KT 2 1/2SM BR CLR 24/24 A2998 RMK AO2
KJVW 180835Z AUTO 00000KT 3SM BR CLR 25/25 A2997 RMK AO2
KJVW 180815Z AUTO 00000KT 3SM BR CLR 24/24 A2997 RMK AO2
KJVW 180755Z AUTO 00000KT 3SM BR CLR 24/24 A2997 RMK AO2
KJVW 180735Z AUTO 10004KT 2 1/2SM BR CLR 24/24 A2997 RMK AO2
KJVW 180715Z AUTO 00000KT 2SM BR CLR 24/24 A2997 RMK AO2
KJVW 180655Z AUTO 00000KT 2 1/2SM BR CLR 24/24 A2998 RMK AO2
KJVW 180635Z AUTO 00000KT 2SM BR CLR 25/25 A2998 RMK AO2
KJVW 180615Z AUTO 00000KT 2SM BR CLR 25/25 A2999 RMK AO2
KJVW 180555Z AUTO 00000KT 1 1/2SM BR CLR 25/25 A2999 RMK AO2
KJVW 180535Z AUTO 00000KT 2 1/2SM BR CLR 25/25 A2999 RMK AO2
KJVW 180515Z AUTO 00000KT 2 1/2SM BR CLR 25/25 A3000 RMK AO2
KJVW 180455Z AUTO 00000KT 4SM BR CLR 25/25 A3000 RMK AO2
KJVW 180435Z AUTO 00000KT 5SM BR CLR 25/25 A3001 RMK AO2
KJVW 180415Z AUTO 00000KT 6SM BR CLR 26/25 A3001 RMK AO2
KJVW 180355Z AUTO 00000KT 5SM BR CLR 26/25 A3001 RMK AO2
KJVW 180335Z AUTO 00000KT 6SM BR CLR 26/25 A3002 RMK AO2
KJVW 180315Z AUTO 00000KT 6SM BR CLR 26/26 A3002 RMK AO2
KJVW 180255Z AUTO 00000KT 5SM BR CLR 26/26 A3001 RMK AO2
KJVW 180235Z AUTO 00000KT 6SM BR CLR 26/26 A3001 RMK AO2
KJVW 180215Z AUTO 21004KT 6SM BR CLR 27/26 A3000 RMK AO2
KJVW 180155Z AUTO 23005KT 6SM BR CLR 27/26 A2999 RMK AO2
KJVW 180135Z AUTO 21004KT 6SM BR CLR 27/26 A2999 RMK AO2
KJVW 180115Z AUTO 19003KT 6SM BR CLR 27/26 A3000 RMK AO2
KJVW 180055Z AUTO 00000KT 6SM BR CLR 27/26 A3000 RMK AO2
KJVW 180035Z AUTO 00000KT 5SM BR CLR 28/25 A3000 RMK AO2 LTG DSNT E
KJVW 180015Z AUTO 24003KT 5SM HZ 28/26 A2999 RMK AO2
KJVW 172355Z AUTO 22006KT 5SM HZ 28/26 A2998 RMK AO2
KJVW 172335Z AUTO 21003KT 5SM HZ 28/26 A2998 RMK AO2
KJVW 172315Z AUTO 26003KT 5SM HZ 29/25 A2998 RMK AO2 LTG DSNT N
KJVW 172255Z AUTO 27004KT 6SM HZ 29/25 A2998 RMK AO2
KJVW 172235Z AUTO 28005KT 5SM HZ 29/25 A2999 RMK AO2
KJVW 172215Z AUTO 26006KT 6SM HZ 30/25 A3000 RMK AO2
KJVW 172155Z AUTO 27007KT 7SM 31/25 A2999 RMK AO2
KJVW 172135Z AUTO 28008KT 6SM HZ CLR 31/25 A2998 RMK AO2 LTG DSNT N AND SE AND NW
KJVW 172115Z AUTO 29008KT 5SM HZ CLR 30/25 A2999 RMK AO2 LTG DSNT SE AND NW
KJVW 172055Z AUTO 27009G14KT 5SM HZ FEW001 30/25 A3000 RMK AO2 LTG DSNT NW
KJVW 172035Z AUTO 27011KT 5SM HZ FEW001 30/25 A3000 RMK AO2 LTG DSNT NW